createdAt,value
2022-10-11T00:00:07.061Z,8.88
2022-10-11T00:03:09.798Z,8.30
2022-10-11T00:06:13.141Z,7.28
2022-10-11T00:09:16.326Z,6.35
2022-10-11T00:12:19.315Z,8.38
2022-10-11T00:15:22.950Z,4.93
2022-10-11T00:18:26.157Z,7.07
2022-10-11T00:21:29.393Z,6.60
2022-10-11T00:24:32.379Z,7.18
2022-10-11T00:27:36.340Z,7.43
2022-10-11T00:30:43.349Z,4.72
2022-10-11T00:33:47.702Z,5.12
2022-10-11T00:36:50.679Z,4.10
2022-10-11T00:39:53.388Z,5.68
2022-10-11T00:42:56.344Z,4.22
2022-10-11T00:46:03.297Z,6.25
2022-10-11T00:49:19.417Z,4.57
2022-10-11T00:52:41.133Z,4.87
2022-10-11T00:55:51.878Z,7.68
2022-10-11T00:58:55.978Z,5.82
2022-10-11T01:01:58.974Z,4.13
2022-10-11T01:05:27.755Z,5.12
2022-10-11T01:08:26.043Z,3.97
2022-10-11T01:11:29.906Z,4.50
2022-10-11T01:15:06.499Z,3.85
2022-10-11T01:18:15.214Z,3.65
2022-10-11T01:21:37.031Z,6.37
2022-10-11T01:24:55.052Z,5.93
2022-10-11T01:27:57.967Z,5.15
2022-10-11T01:31:08.729Z,4.22
2022-10-11T01:34:27.117Z,4.35
2022-10-11T01:37:43.845Z,5.60
2022-10-11T01:40:57.153Z,6.78
2022-10-11T01:44:01.333Z,6.75
2022-10-11T01:47:05.742Z,7.22
2022-10-11T01:50:48.984Z,5.97
2022-10-11T01:54:13.991Z,5.78
2022-10-11T01:57:44.825Z,6.43
2022-10-11T02:01:05.922Z,5.55
2022-10-11T02:04:21.575Z,7.55
2022-10-11T02:10:56.897Z,6.80
2022-10-11T02:14:16.397Z,7.45
2022-10-11T02:17:21.923Z,5.90
2022-10-11T02:23:39.709Z,7.35
2022-10-11T02:26:44.861Z,5.25
2022-10-11T02:29:49.342Z,7.20
2022-10-11T02:32:53.109Z,8.02
2022-10-11T02:36:01.389Z,10.07
2022-10-11T02:39:11.132Z,5.37
2022-10-11T02:42:45.860Z,6.53
2022-10-11T02:45:52.091Z,7.68
2022-10-11T02:48:55.177Z,7.28
2022-10-11T02:51:59.490Z,5.97
2022-10-11T02:55:02.479Z,6.15
2022-10-11T02:58:05.192Z,7.28
2022-10-11T03:01:08.229Z,6.25
2022-10-11T03:04:11.113Z,7.12
2022-10-11T03:07:14.918Z,6.32
2022-10-11T03:10:17.676Z,6.97
2022-10-11T03:13:20.710Z,5.57
2022-10-11T03:16:23.487Z,7.10
2022-10-11T03:19:26.709Z,8.52
2022-10-11T03:22:29.408Z,7.37
2022-10-11T03:25:32.495Z,5.95
2022-10-11T03:28:36.111Z,6.85
2022-10-11T03:31:39.142Z,7.87
2022-10-11T03:34:41.906Z,5.75
2022-10-11T03:37:45.855Z,11.30
2022-10-11T03:40:48.558Z,7.10
2022-10-11T03:43:51.611Z,8.18
2022-10-11T03:46:54.321Z,7.93
2022-10-11T03:49:57.326Z,7.50
2022-10-11T03:53:00.238Z,5.50
2022-10-11T03:56:08.346Z,6.47
2022-10-11T03:59:11.441Z,6.45
2022-10-11T04:02:14.535Z,11.23
2022-10-11T04:05:17.675Z,10.00
2022-10-11T04:08:21.659Z,8.93
2022-10-11T04:11:24.681Z,6.93
2022-10-11T04:14:28.687Z,8.00
2022-10-11T04:17:31.922Z,7.32
2022-10-11T04:20:34.785Z,5.30
2022-10-11T04:23:37.793Z,7.43
2022-10-11T04:26:40.527Z,7.40
2022-10-11T04:29:43.829Z,6.35
2022-10-11T04:32:46.567Z,7.18
2022-10-11T04:35:49.562Z,8.48
2022-10-11T04:38:52.328Z,6.30
2022-10-11T04:41:55.571Z,9.93
2022-10-11T04:44:58.765Z,9.52
2022-10-11T04:48:02.164Z,9.40
2022-10-11T04:51:05.555Z,11.07
2022-10-11T04:54:08.552Z,9.32
2022-10-11T04:57:11.640Z,9.93
2022-10-11T05:00:15.289Z,9.48
2022-10-11T05:03:18.466Z,9.27
2022-10-11T05:06:21.474Z,9.95
2022-10-11T05:09:24.227Z,8.70
2022-10-11T05:12:27.236Z,10.93
2022-10-11T05:15:29.915Z,9.82
2022-10-11T05:18:33.065Z,11.48
2022-10-11T05:21:35.786Z,9.70
2022-10-11T05:24:38.768Z,9.52
2022-10-11T05:27:41.918Z,10.05
2022-10-11T05:30:44.909Z,10.30
2022-10-11T05:33:47.729Z,10.30
2022-10-11T05:36:50.726Z,9.82
2022-10-11T05:39:54.057Z,10.95
2022-10-11T05:42:57.133Z,11.12
2022-10-11T05:45:59.894Z,10.05
2022-10-11T05:49:02.875Z,7.20
2022-10-11T05:52:09.122Z,10.35
2022-10-11T05:55:12.130Z,8.25
2022-10-11T05:58:15.358Z,9.65
2022-10-11T06:01:24.148Z,10.70
2022-10-11T06:04:27.517Z,9.32
2022-10-11T06:07:30.221Z,11.43
2022-10-11T06:10:34.222Z,13.40
2022-10-11T06:13:37.103Z,14.27
2022-10-11T06:16:40.734Z,16.25
2022-10-11T06:19:43.535Z,17.48
2022-10-11T06:22:46.595Z,21.20
2022-10-11T06:26:07.542Z,18.05
2022-10-11T06:29:11.110Z,12.10
2022-10-11T06:32:13.965Z,16.75
2022-10-11T06:35:17.093Z,17.48
2022-10-11T06:38:20.856Z,14.93
2022-10-11T06:41:26.475Z,17.15
2022-10-11T06:44:29.513Z,12.18
2022-10-11T06:47:32.582Z,11.15
2022-10-11T06:51:00.041Z,14.98
2022-10-11T06:54:03.791Z,13.20
2022-10-11T06:57:06.492Z,16.20
2022-10-11T07:00:12.663Z,17.10
2022-10-11T07:03:15.742Z,17.37
2022-10-11T07:06:21.884Z,14.98
2022-10-11T07:09:24.635Z,17.80
2022-10-11T07:12:29.004Z,13.55
2022-10-11T07:15:31.773Z,17.08
2022-10-11T07:18:36.075Z,18.27
2022-10-11T07:21:38.974Z,12.15
2022-10-11T07:24:41.989Z,17.75
2022-10-11T07:27:44.727Z,17.80
2022-10-11T07:30:48.203Z,18.48
2022-10-11T07:33:51.226Z,17.83
2022-10-11T07:36:54.356Z,15.38
2022-10-11T07:39:57.097Z,17.67
2022-10-11T07:43:00.944Z,21.50
2022-10-11T07:46:05.166Z,22.23
2022-10-11T07:49:08.553Z,24.23
2022-10-11T07:52:11.514Z,21.15
2022-10-11T07:55:14.934Z,26.65
2022-10-11T07:58:18.006Z,22.42
2022-10-11T08:01:21.385Z,20.40
2022-10-11T08:04:24.476Z,17.35
2022-10-11T08:07:28.334Z,16.23
2022-10-11T08:10:37.656Z,15.43
2022-10-11T08:13:40.808Z,17.92
2022-10-11T08:16:43.888Z,15.25
2022-10-11T08:19:46.593Z,11.05
2022-10-11T08:22:49.603Z,13.38
2022-10-11T08:25:56.534Z,8.75
2022-10-11T08:29:02.407Z,5.75
2022-10-11T08:32:05.514Z,7.55
2022-10-11T08:35:08.986Z,5.57
2022-10-11T08:38:12.111Z,5.85
2022-10-11T08:41:24.263Z,4.10
2022-10-11T08:45:10.023Z,3.83
2022-10-11T08:48:12.908Z,4.53
2022-10-11T08:51:21.240Z,4.20
2022-10-11T08:54:44.636Z,5.20
2022-10-11T08:57:55.947Z,5.12
2022-10-11T09:00:59.590Z,4.25
2022-10-11T09:04:03.725Z,9.77
2022-10-11T09:07:28.441Z,5.18
2022-10-11T09:10:40.286Z,4.62
2022-10-11T09:14:07.599Z,7.40
2022-10-11T09:17:33.421Z,5.40
2022-10-11T09:21:00.036Z,8.10
2022-10-11T09:24:36.733Z,7.62
2022-10-11T09:28:01.777Z,6.53
2022-10-11T09:31:11.210Z,7.00
2022-10-11T09:34:16.895Z,6.37
2022-10-11T09:37:38.049Z,6.95
2022-10-11T09:41:12.802Z,7.10
2022-10-11T09:44:48.811Z,9.10
2022-10-11T09:47:54.288Z,6.95
2022-10-11T09:51:04.280Z,8.30
2022-10-11T09:54:10.600Z,10.35
2022-10-11T09:57:36.823Z,8.80
2022-10-11T10:00:39.821Z,5.97
2022-10-11T10:03:44.215Z,10.38
2022-10-11T10:06:46.949Z,6.80
2022-10-11T10:09:51.675Z,6.18
2022-10-11T10:12:55.738Z,8.02
2022-10-11T10:15:59.376Z,10.88
2022-10-11T10:19:06.837Z,11.27
2022-10-11T10:22:18.103Z,7.43
2022-10-11T10:25:32.109Z,12.40
2022-10-11T10:28:36.035Z,10.33
2022-10-11T10:32:12.902Z,12.52
2022-10-11T10:35:15.564Z,11.43
2022-10-11T10:38:48.650Z,10.82
2022-10-11T10:41:55.542Z,8.95
2022-10-11T10:44:59.567Z,6.45
2022-10-11T10:48:14.571Z,9.18
2022-10-11T10:51:44.921Z,9.30
2022-10-11T10:55:14.215Z,7.90
2022-10-11T10:58:46.032Z,8.18
2022-10-11T11:02:16.029Z,9.30
2022-10-11T11:05:41.843Z,11.77
2022-10-11T11:09:00.554Z,9.77
2022-10-11T11:12:10.784Z,8.50
2022-10-11T11:15:37.785Z,7.43
2022-10-11T11:18:49.024Z,7.93
2022-10-11T11:22:17.223Z,8.43
2022-10-11T11:25:25.359Z,9.25
2022-10-11T11:28:38.410Z,11.80
2022-10-11T11:31:44.336Z,7.45
2022-10-11T11:35:27.482Z,9.07
2022-10-11T11:38:58.001Z,6.20
2022-10-11T11:42:16.379Z,8.45
2022-10-11T11:45:24.292Z,8.32
2022-10-11T11:48:27.425Z,8.00
2022-10-11T11:51:41.200Z,8.23
2022-10-11T11:54:58.042Z,13.85
2022-10-11T11:58:23.039Z,11.27
2022-10-11T12:01:31.732Z,7.45
2022-10-11T12:04:37.212Z,11.00
2022-10-11T12:08:07.205Z,8.70
2022-10-11T12:11:26.107Z,8.02
2022-10-11T12:14:34.984Z,6.90
2022-10-11T12:17:56.139Z,9.45
2022-10-11T12:21:19.373Z,5.87
2022-10-11T12:24:26.562Z,7.97
2022-10-11T12:27:41.915Z,5.90
2022-10-11T12:30:47.026Z,9.07
2022-10-11T12:34:03.842Z,5.82
2022-10-11T12:37:20.085Z,7.07
2022-10-11T12:41:00.658Z,8.30
2022-10-11T12:44:09.872Z,7.78
2022-10-11T12:47:31.993Z,5.70
2022-10-11T12:50:50.369Z,5.62
2022-10-11T12:54:25.909Z,9.95
2022-10-11T12:57:51.765Z,6.70
2022-10-11T13:00:58.017Z,9.65
2022-10-11T13:04:08.792Z,10.07
2022-10-11T13:07:16.146Z,7.57
2022-10-11T13:10:36.885Z,4.70
2022-10-11T13:13:42.940Z,6.07
2022-10-11T13:16:51.630Z,6.57
2022-10-11T13:20:18.309Z,6.45
2022-10-11T13:23:36.011Z,5.53
2022-10-11T13:26:39.230Z,7.05
2022-10-11T13:29:44.992Z,7.07
2022-10-11T13:32:47.805Z,6.68
2022-10-11T13:35:50.997Z,5.70
2022-10-11T13:39:01.332Z,5.50
2022-10-11T13:42:10.950Z,4.97
2022-10-11T13:45:16.331Z,6.68
2022-10-11T13:48:19.345Z,6.80
2022-10-11T13:51:37.813Z,4.20
2022-10-11T13:54:58.764Z,9.15
2022-10-11T13:58:06.804Z,6.55
2022-10-11T14:01:35.660Z,5.47
2022-10-11T14:04:40.300Z,4.30
2022-10-11T14:07:43.042Z,11.10
2022-10-11T14:10:47.466Z,4.72
2022-10-11T14:16:58.677Z,4.43
2022-10-11T14:20:19.804Z,5.50
2022-10-11T14:23:22.807Z,7.57
2022-10-11T14:26:26.221Z,4.00
2022-10-11T14:29:32.452Z,6.22
2022-10-11T14:32:36.520Z,3.92
2022-10-11T14:35:41.707Z,6.00
2022-10-11T14:38:44.434Z,6.03
2022-10-11T14:41:47.457Z,5.90
2022-10-11T14:44:50.344Z,7.53
2022-10-11T14:47:53.643Z,7.12
2022-10-11T14:50:59.199Z,6.37
2022-10-11T14:54:02.176Z,5.57
2022-10-11T14:57:05.174Z,7.30
2022-10-11T15:00:17.256Z,5.80
2022-10-11T15:03:20.106Z,5.25
2022-10-11T15:06:36.859Z,5.97
2022-10-11T15:09:39.871Z,4.10
2022-10-11T15:12:42.846Z,5.60
2022-10-11T15:15:45.605Z,6.45
2022-10-11T15:18:51.086Z,4.45
2022-10-11T15:21:53.841Z,5.40
2022-10-11T15:24:56.924Z,8.52
2022-10-11T15:28:00.841Z,5.75
2022-10-11T15:34:07.489Z,6.18
2022-10-11T15:37:10.565Z,6.32
2022-10-11T15:40:21.301Z,6.97
2022-10-11T15:43:25.297Z,7.12
2022-10-11T15:46:28.241Z,9.98
2022-10-11T15:49:31.511Z,8.07
2022-10-11T15:52:34.239Z,12.98
2022-10-11T15:55:40.314Z,7.93
2022-10-11T15:58:43.395Z,10.57
2022-10-11T16:01:47.102Z,7.87
2022-10-11T16:04:50.151Z,10.50
2022-10-11T16:07:53.917Z,7.05
2022-10-11T16:10:57.472Z,8.73
2022-10-11T16:14:00.224Z,9.45
2022-10-11T16:17:05.622Z,7.35
2022-10-11T16:20:08.821Z,8.95
2022-10-11T16:23:12.834Z,12.50
2022-10-11T16:26:16.723Z,12.07
2022-10-11T16:29:19.735Z,11.10
2022-10-11T16:32:24.421Z,15.27
2022-10-11T16:35:32.282Z,12.60
2022-10-11T16:38:35.910Z,9.73
2022-10-11T16:41:41.940Z,14.20
2022-10-11T16:44:45.837Z,10.60
2022-10-11T16:47:48.902Z,10.88
2022-10-11T16:50:51.611Z,10.05
2022-10-11T16:53:54.645Z,9.45
2022-10-11T16:56:58.688Z,8.80
2022-10-11T17:00:01.785Z,12.45
2022-10-11T17:03:04.575Z,12.02
2022-10-11T17:06:08.609Z,12.27
2022-10-11T17:09:11.974Z,17.57
2022-10-11T17:12:17.154Z,11.30
2022-10-11T17:18:23.552Z,11.90
2022-10-11T17:21:27.451Z,11.45
2022-10-11T17:24:30.455Z,13.10
2022-10-11T17:27:33.989Z,9.57
2022-10-11T17:30:38.120Z,11.65
2022-10-11T17:33:40.930Z,9.75
2022-10-11T17:36:44.317Z,13.95
2022-10-11T17:39:47.305Z,11.80
2022-10-11T17:42:50.825Z,14.95
2022-10-11T17:46:01.551Z,12.32
2022-10-11T17:49:06.461Z,14.93
2022-10-11T17:52:09.925Z,13.32
2022-10-11T17:55:14.846Z,8.27
2022-10-11T17:58:18.962Z,12.37
2022-10-11T18:01:24.867Z,32.38
2022-10-11T18:04:30.405Z,15.02
2022-10-11T18:07:33.349Z,16.65
2022-10-11T18:10:37.022Z,13.07
2022-10-11T18:13:46.479Z,13.55
2022-10-11T18:16:50.540Z,13.13
2022-10-11T18:19:53.839Z,10.38
2022-10-11T18:22:57.233Z,12.25
2022-10-11T18:26:00.076Z,11.93
2022-10-11T18:29:04.800Z,10.88
2022-10-11T18:32:08.500Z,10.70
2022-10-11T18:35:11.726Z,11.87
2022-10-11T18:38:15.275Z,11.32
2022-10-11T18:41:21.447Z,12.50
2022-10-11T18:44:24.926Z,10.55
2022-10-11T18:50:35.067Z,8.93
2022-10-11T18:53:38.741Z,11.35
2022-10-11T18:56:41.706Z,24.90
2022-10-11T18:59:44.992Z,15.50
2022-10-11T19:02:47.881Z,13.25
2022-10-11T19:05:51.337Z,15.40
2022-10-11T19:08:56.735Z,11.88
2022-10-11T19:11:59.926Z,11.32
2022-10-11T19:15:03.030Z,17.75
2022-10-11T19:18:08.429Z,14.27
2022-10-11T19:21:12.984Z,10.48
2022-10-11T19:24:19.020Z,11.65
2022-10-11T19:27:22.441Z,13.73
2022-10-11T19:30:26.598Z,12.23
2022-10-11T19:33:32.185Z,11.70
2022-10-11T19:36:36.839Z,11.63
2022-10-11T19:39:41.096Z,11.10
2022-10-11T19:42:44.878Z,9.93
2022-10-11T19:45:48.329Z,14.30
2022-10-11T19:48:52.777Z,15.80
2022-10-11T19:51:57.265Z,11.77
2022-10-11T19:55:00.435Z,13.38
2022-10-11T19:58:08.163Z,11.90
2022-10-11T20:01:18.072Z,17.33
2022-10-11T20:07:44.453Z,18.35
2022-10-11T20:10:48.027Z,15.82
2022-10-11T20:13:53.672Z,11.93
2022-10-11T20:16:56.714Z,13.00
2022-10-11T20:19:59.428Z,15.05
2022-10-11T20:23:02.613Z,18.73
2022-10-11T20:26:06.667Z,12.05
2022-10-11T20:29:09.773Z,12.40
2022-10-11T20:32:13.507Z,14.63
2022-10-11T20:35:16.618Z,13.70
2022-10-11T20:38:19.399Z,14.40
2022-10-11T20:41:25.196Z,13.70
2022-10-11T20:44:28.007Z,14.35
2022-10-11T20:47:31.426Z,13.68
2022-10-11T20:50:34.973Z,17.65
2022-10-11T20:53:38.851Z,18.33
2022-10-11T20:56:41.646Z,15.75
2022-10-11T20:59:45.257Z,18.10
2022-10-11T21:02:50.666Z,16.15
2022-10-11T21:06:00.398Z,15.32
2022-10-11T21:09:03.382Z,17.58
2022-10-11T21:12:06.601Z,20.83
2022-10-11T21:15:09.441Z,17.12
2022-10-11T21:18:13.192Z,22.45
2022-10-11T21:21:15.909Z,20.67
2022-10-11T21:24:19.448Z,20.37
2022-10-11T21:27:22.129Z,17.33
2022-10-11T21:30:26.247Z,16.73
2022-10-11T21:33:30.267Z,19.52
2022-10-11T21:36:33.756Z,20.43
2022-10-11T21:39:36.516Z,19.35
2022-10-11T21:42:39.584Z,16.33
2022-10-11T21:45:42.410Z,19.67
2022-10-11T21:48:45.828Z,17.20
2022-10-11T21:51:48.586Z,16.95
2022-10-11T21:54:51.565Z,17.05
2022-10-11T21:57:55.466Z,18.60
2022-10-11T22:00:58.610Z,17.93
2022-10-11T22:04:01.648Z,17.62
2022-10-11T22:07:04.678Z,16.98
2022-10-11T22:10:08.472Z,20.90
2022-10-11T22:13:12.000Z,20.92
2022-10-11T22:16:15.638Z,19.80
2022-10-11T22:19:18.386Z,19.62
2022-10-11T22:22:21.371Z,21.45
2022-10-11T22:25:24.214Z,24.02
2022-10-11T22:28:27.259Z,24.42
2022-10-11T22:31:30.399Z,20.73
2022-10-11T22:34:33.960Z,21.00
2022-10-11T22:37:37.239Z,26.05
2022-10-11T22:40:40.466Z,26.27
2022-10-11T22:43:43.996Z,24.17
2022-10-11T22:46:47.066Z,21.67
2022-10-11T22:49:50.480Z,26.05
2022-10-11T22:52:53.466Z,22.65
2022-10-11T22:55:56.431Z,24.90
2022-10-11T22:59:00.013Z,22.70
2022-10-11T23:02:02.897Z,20.83
2022-10-11T23:05:06.025Z,24.20
2022-10-11T23:08:09.809Z,27.40
2022-10-11T23:11:12.857Z,22.58
2022-10-11T23:14:15.643Z,22.25
2022-10-11T23:17:18.920Z,21.17
2022-10-11T23:20:21.859Z,25.60
2022-10-11T23:23:25.903Z,22.90
2022-10-11T23:26:28.869Z,20.05
2022-10-11T23:29:33.196Z,22.43
2022-10-11T23:32:36.646Z,20.83
2022-10-11T23:35:39.675Z,21.00
2022-10-11T23:38:42.535Z,18.95
2022-10-11T23:41:45.569Z,21.12
2022-10-11T23:44:48.414Z,21.40
2022-10-11T23:47:51.534Z,19.23
2022-10-11T23:50:54.276Z,18.08
2022-10-11T23:53:57.455Z,20.70
2022-10-11T23:57:00.208Z,22.17
